Morgan City — WDE7077 — position and weather

sailwx.info

Track history (hours):
 
Tides and Currents Weather Stations Pressure Air Temp Water Temp Dewpoint Dewpoint Depression Visibility Wind Speed Wind Dir Waves Ship Positions

Morgan City

Owner: Kirby Inland Marine LP, Houston, TX. More information available from US FCC via Universal Licensing System and Coast Guard Vessel Documentation Center.

Last reported at 2018-Jul-19 11:28 UTC. Time now 2018-Jul-19 11:52 UTC.
Position N 27°06' W 097°27'.

Length 115 m; draft 2.6 m.

Type: . MMSI: 367388680.

Date/timePositionNaut miles runAvg speedWind from/ knotsBaromVisibWave heightAir tempDewpointWater temp
2018-Jul-19 11:28N 27°06' W 097°27'0 0.0
2018-Jul-19 10:59N 27°06' W 097°27'0 0.0
2018-Jul-19 08:55N 27°06' W 097°27'0 0.0
2018-Jul-19 07:20N 27°06' W 097°27'0 0.0
2018-Jul-19 06:46N 27°06' W 097°27'0 0.0
2018-Jul-19 06:30N 27°06' W 097°27'0 0.0
2018-Jul-19 06:00N 27°06' W 097°27'0 0.0
2018-Jul-19 05:29N 27°06' W 097°27'0 0.0
2018-Jul-19 05:00N 27°06' W 097°27'0 0.0
2018-Jul-19 04:30N 27°06' W 097°27'0 0.0
2018-Jul-19 04:00N 27°06' W 097°27'0 0.0
2018-Jul-19 03:30N 27°06' W 097°27'0 0.0
2018-Jul-19 02:53N 27°06' W 097°27'0 0.0
2018-Jul-19 02:30N 27°06' W 097°27'0 0.0
2018-Jul-19 02:00N 27°06' W 097°27'0 0.0
2018-Jul-19 01:14N 27°06' W 097°27'0 0.0
2018-Jul-19 00:59N 27°06' W 097°27'0 0.0
2018-Jul-19 00:30N 27°06' W 097°27'0 0.0
2018-Jul-19 00:00N 27°06' W 097°27'0 0.0
2018-Jul-18 23:28N 27°06' W 097°27'0 0.0
2018-Jul-18 02:53N 27°07' W 097°27'  
2018-Jul-10 20:21N 29°01' W 095°14'2 5.5
2018-Jul-10 20:00N 29°03' W 095°13'3 5.3
2018-Jul-10 19:30N 29°05' W 095°12'2 3.4
2018-Jul-10 19:00N 29°07' W 095°12'3 5.4
2018-Jul-10 18:30N 29°09' W 095°09'3 5.9
2018-Jul-10 18:00N 29°10' W 095°07'3 5.7
2018-Jul-10 17:30N 29°12' W 095°04'3 5.0
2018-Jul-10 17:00N 29°14' W 095°02'3 5.4
2018-Jul-10 16:30N 29°16' W 094°60'3 5.5
2018-Jul-10 16:00N 29°17' W 094°57'3 5.8
2018-Jul-10 15:30N 29°17' W 094°54'15 5.2
2018-Jul-10 12:43N 29°27' W 094°41'2 5.3
2018-Jul-10 12:16N 29°28' W 094°39'2 5.4
2018-Jul-10 11:54N 29°29' W 094°37'2 4.0
2018-Jul-10 11:30N 29°29' W 094°35'3 5.5
2018-Jul-10 11:00N 29°30' W 094°32'3 4.9
2018-Jul-10 10:26N 29°31' W 094°29'1 2.0
2018-Jul-10 09:57N 29°32' W 094°29'1 2.5
2018-Jul-10 09:30N 29°33' W 094°28'2 3.5
2018-Jul-10 09:00N 29°34' W 094°26'2 4.3
2018-Jul-10 08:30N 29°36' W 094°25'2 4.6
2018-Jul-10 08:00N 29°36' W 094°22'3 5.6
2018-Jul-10 07:30N 29°38' W 094°19'3 5.7
2018-Jul-10 06:59N 29°39' W 094°16'2 4.6
2018-Jul-10 06:30N 29°40' W 094°14'3 5.8
2018-Jul-10 06:00N 29°41' W 094°11'3 5.5
2018-Jul-10 05:30N 29°42' W 094°08'3 5.8
2018-Jul-10 05:00N 29°44' W 094°06'3 5.7
2018-Jul-10 04:30N 29°46' W 094°03'3 5.6
2018-Jul-10 04:00N 29°48' W 094°01'2 3.7
2018-Jul-10 03:30N 29°49' W 093°59'1 1.2
2018-Jul-10 03:00N 29°49' W 093°58'0 0.4
2018-Jul-10 02:30N 29°49' W 093°58'0 0.0
2018-Jul-10 02:00N 29°49' W 093°58'1 2.1
2018-Jul-10 01:30N 29°50' W 093°57'3 6.4
2018-Jul-10 01:00N 29°53' W 093°55'4 7.1
2018-Jul-10 00:30N 29°55' W 093°53'3 6.5
2018-Jul-10 00:00N 29°58' W 093°51'1 2.2
2018-Jul-09 23:30N 29°59' W 093°50'1 2.7
2018-Jul-09 23:00N 29°59' W 093°48'3 5.3
2018-Jul-09 22:30N 30°01' W 093°46'2 4.9
2018-Jul-09 22:00N 30°03' W 093°44'2 4.2
2018-Jul-09 21:30N 30°03' W 093°42'6 4.4
2018-Jul-09 20:02N 30°04' W 093°34'0 4.2
2018-Jul-09 20:00N 30°04' W 093°34'2 4.1
2018-Jul-09 19:30N 30°04' W 093°32'2 3.6
2018-Jul-09 19:00N 30°04' W 093°30'2 3.6
2018-Jul-09 18:30N 30°04' W 093°28'1 2.0
2018-Jul-09 18:01N 30°04' W 093°27'2 3.0
2018-Jul-09 17:30N 30°04' W 093°25'2 3.4
2018-Jul-09 17:00N 30°04' W 093°23'2 3.3
2018-Jul-09 16:30N 30°04' W 093°21'2 3.6
2018-Jul-09 16:00N 30°05' W 093°20'1 2.9
2018-Jul-09 15:30N 30°06' W 093°18'1 1.7
2018-Jul-09 15:01N 30°05' W 093°18'0 0.5
2018-Jul-09 14:30N 30°05' W 093°17'1 2.8
2018-Jul-09 14:01N 30°04' W 093°16'0 0.3
2018-Jul-09 13:30N 30°04' W 093°16'0 0.0
2018-Jul-09 13:00N 30°04' W 093°16'0 0.0
2018-Jul-09 12:30N 30°04' W 093°16'0 0.2
2018-Jul-09 12:00N 30°04' W 093°16'0 0.2
2018-Jul-09 11:30N 30°04' W 093°16'  
Track history (hours):
 
Tides and Currents Weather Stations Pressure Air Temp Water Temp Dewpoint Dewpoint Depression Visibility Wind Speed Wind Dir Waves Ship Positions

Morgan City

Owner: Kirby Inland Marine LP, Houston, TX. More information available from US FCC via Universal Licensing System and Coast Guard Vessel Documentation Center.

Last reported at 2018-Jul-19 11:28 UTC. Time now 2018-Jul-19 11:52 UTC.
Position N 27°06' W 097°27'.

Length 115 m; draft 2.6 m.

Type: . MMSI: 367388680.

Date/timePositionNaut miles runAvg speedWind from/ knotsBaromVisibWave heightAir tempDewpointWater temp
2018-Jul-19 11:28N 27°06' W 097°27'0 0.0
2018-Jul-19 10:59N 27°06' W 097°27'0 0.0
2018-Jul-19 08:55N 27°06' W 097°27'0 0.0
2018-Jul-19 07:20N 27°06' W 097°27'0 0.0
2018-Jul-19 06:46N 27°06' W 097°27'0 0.0
2018-Jul-19 06:30N 27°06' W 097°27'0 0.0
2018-Jul-19 06:00N 27°06' W 097°27'0 0.0
2018-Jul-19 05:29N 27°06' W 097°27'0 0.0
2018-Jul-19 05:00N 27°06' W 097°27'0 0.0
2018-Jul-19 04:30N 27°06' W 097°27'0 0.0
2018-Jul-19 04:00N 27°06' W 097°27'0 0.0
2018-Jul-19 03:30N 27°06' W 097°27'0 0.0
2018-Jul-19 02:53N 27°06' W 097°27'0 0.0
2018-Jul-19 02:30N 27°06' W 097°27'0 0.0
2018-Jul-19 02:00N 27°06' W 097°27'0 0.0
2018-Jul-19 01:14N 27°06' W 097°27'0 0.0
2018-Jul-19 00:59N 27°06' W 097°27'0 0.0
2018-Jul-19 00:30N 27°06' W 097°27'0 0.0
2018-Jul-19 00:00N 27°06' W 097°27'0 0.0
2018-Jul-18 23:28N 27°06' W 097°27'0 0.0
2018-Jul-18 02:53N 27°07' W 097°27'  
2018-Jul-10 20:21N 29°01' W 095°14'2 5.5
2018-Jul-10 20:00N 29°03' W 095°13'3 5.3
2018-Jul-10 19:30N 29°05' W 095°12'2 3.4
2018-Jul-10 19:00N 29°07' W 095°12'3 5.4
2018-Jul-10 18:30N 29°09' W 095°09'3 5.9
2018-Jul-10 18:00N 29°10' W 095°07'3 5.7
2018-Jul-10 17:30N 29°12' W 095°04'3 5.0
2018-Jul-10 17:00N 29°14' W 095°02'3 5.4
2018-Jul-10 16:30N 29°16' W 094°60'3 5.5
2018-Jul-10 16:00N 29°17' W 094°57'3 5.8
2018-Jul-10 15:30N 29°17' W 094°54'15 5.2
2018-Jul-10 12:43N 29°27' W 094°41'2 5.3
2018-Jul-10 12:16N 29°28' W 094°39'2 5.4
2018-Jul-10 11:54N 29°29' W 094°37'2 4.0
2018-Jul-10 11:30N 29°29' W 094°35'3 5.5
2018-Jul-10 11:00N 29°30' W 094°32'3 4.9
2018-Jul-10 10:26N 29°31' W 094°29'1 2.0
2018-Jul-10 09:57N 29°32' W 094°29'1 2.5
2018-Jul-10 09:30N 29°33' W 094°28'2 3.5
2018-Jul-10 09:00N 29°34' W 094°26'2 4.3
2018-Jul-10 08:30N 29°36' W 094°25'2 4.6
2018-Jul-10 08:00N 29°36' W 094°22'3 5.6
2018-Jul-10 07:30N 29°38' W 094°19'3 5.7
2018-Jul-10 06:59N 29°39' W 094°16'2 4.6
2018-Jul-10 06:30N 29°40' W 094°14'3 5.8
2018-Jul-10 06:00N 29°41' W 094°11'3 5.5
2018-Jul-10 05:30N 29°42' W 094°08'3 5.8
2018-Jul-10 05:00N 29°44' W 094°06'3 5.7
2018-Jul-10 04:30N 29°46' W 094°03'3 5.6
2018-Jul-10 04:00N 29°48' W 094°01'2 3.7
2018-Jul-10 03:30N 29°49' W 093°59'1 1.2
2018-Jul-10 03:00N 29°49' W 093°58'0 0.4
2018-Jul-10 02:30N 29°49' W 093°58'0 0.0
2018-Jul-10 02:00N 29°49' W 093°58'1 2.1
2018-Jul-10 01:30N 29°50' W 093°57'3 6.4
2018-Jul-10 01:00N 29°53' W 093°55'4 7.1
2018-Jul-10 00:30N 29°55' W 093°53'3 6.5
2018-Jul-10 00:00N 29°58' W 093°51'1 2.2
2018-Jul-09 23:30N 29°59' W 093°50'1 2.7
2018-Jul-09 23:00N 29°59' W 093°48'3 5.3
2018-Jul-09 22:30N 30°01' W 093°46'2 4.9
2018-Jul-09 22:00N 30°03' W 093°44'2 4.2
2018-Jul-09 21:30N 30°03' W 093°42'6 4.4
2018-Jul-09 20:02N 30°04' W 093°34'0 4.2
2018-Jul-09 20:00N 30°04' W 093°34'2 4.1
2018-Jul-09 19:30N 30°04' W 093°32'2 3.6
2018-Jul-09 19:00N 30°04' W 093°30'2 3.6
2018-Jul-09 18:30N 30°04' W 093°28'1 2.0
2018-Jul-09 18:01N 30°04' W 093°27'2 3.0
2018-Jul-09 17:30N 30°04' W 093°25'2 3.4
2018-Jul-09 17:00N 30°04' W 093°23'2 3.3
2018-Jul-09 16:30N 30°04' W 093°21'2 3.6
2018-Jul-09 16:00N 30°05' W 093°20'1 2.9
2018-Jul-09 15:30N 30°06' W 093°18'1 1.7
2018-Jul-09 15:01N 30°05' W 093°18'0 0.5
2018-Jul-09 14:30N 30°05' W 093°17'1 2.8
2018-Jul-09 14:01N 30°04' W 093°16'0 0.3
2018-Jul-09 13:30N 30°04' W 093°16'0 0.0
2018-Jul-09 13:00N 30°04' W 093°16'0 0.0
2018-Jul-09 12:30N 30°04' W 093°16'0 0.2
2018-Jul-09 12:00N 30°04' W 093°16'0 0.2
2018-Jul-09 11:30N 30°04' W 093°16'  

Dump ship's entire track history